createdAt,value
2022-10-31T00:02:01.010Z,83.40
2022-10-31T00:04:43.744Z,82.30
2022-10-31T00:10:11.208Z,76.70
2022-10-31T00:15:37.962Z,86.30
2022-10-31T00:18:20.853Z,88.00
2022-10-31T00:21:04.914Z,91.40
2022-10-31T00:23:47.840Z,95.70
2022-10-31T00:26:32.083Z,93.00
2022-10-31T00:29:14.891Z,94.50
2022-10-31T00:31:58.007Z,91.10
2022-10-31T00:34:40.704Z,95.80
2022-10-31T00:40:07.160Z,92.90
2022-10-31T00:42:50.004Z,94.80
2022-10-31T00:45:33.179Z,88.60
2022-10-31T00:48:15.987Z,97.40
2022-10-31T00:50:59.027Z,89.70
2022-10-31T00:53:41.702Z,81.80
2022-10-31T00:56:24.753Z,78.10
2022-10-31T00:59:07.695Z,90.60
2022-10-31T01:01:51.455Z,92.10
2022-10-31T01:04:34.469Z,91.70
2022-10-31T01:07:17.339Z,87.00
2022-10-31T01:10:01.124Z,87.60
2022-10-31T01:12:46.878Z,86.80
2022-10-31T01:15:30.478Z,89.90
2022-10-31T01:21:05.375Z,95.30
2022-10-31T01:23:48.225Z,102.40
2022-10-31T01:26:32.957Z,78.60
2022-10-31T01:29:15.889Z,86.60
2022-10-31T01:34:41.221Z,91.20
2022-10-31T01:40:07.650Z,84.50
2022-10-31T01:42:50.369Z,84.60
2022-10-31T01:48:20.610Z,80.90
2022-10-31T01:51:06.076Z,84.40
2022-10-31T01:53:50.710Z,85.90
2022-10-31T01:56:38.489Z,91.40
2022-10-31T01:59:23.215Z,86.10
2022-10-31T02:02:07.558Z,83.00
2022-10-31T02:04:51.111Z,92.50
2022-10-31T02:07:57.723Z,77.00
2022-10-31T02:10:47.213Z,80.90
2022-10-31T02:13:30.606Z,76.70
2022-10-31T02:16:16.831Z,84.20
2022-10-31T02:19:00.818Z,80.20
2022-10-31T02:22:08.142Z,77.00
2022-10-31T02:25:26.462Z,76.40
2022-10-31T02:28:48.783Z,74.70
2022-10-31T02:31:36.700Z,70.50
2022-10-31T02:34:47.495Z,72.60
2022-10-31T02:37:39.410Z,69.00
2022-10-31T02:40:44.908Z,74.80
2022-10-31T02:44:06.100Z,70.90
2022-10-31T02:46:55.603Z,71.10
2022-10-31T02:49:41.233Z,72.90
2022-10-31T02:52:28.653Z,72.50
2022-10-31T02:55:25.897Z,73.10
2022-10-31T03:01:27.889Z,77.10
2022-10-31T03:04:39.794Z,69.80
2022-10-31T03:07:25.420Z,72.20
2022-10-31T03:10:36.664Z,79.90
2022-10-31T03:13:34.264Z,75.90
2022-10-31T03:16:52.944Z,79.90
2022-10-31T03:19:44.062Z,81.30
2022-10-31T03:22:34.157Z,78.30
2022-10-31T03:25:18.172Z,86.00
2022-10-31T03:28:07.105Z,79.50
2022-10-31T03:30:52.494Z,81.60
2022-10-31T03:33:38.887Z,81.90
2022-10-31T03:36:22.833Z,85.90
2022-10-31T03:39:09.105Z,72.20
2022-10-31T03:42:21.574Z,77.10
2022-10-31T03:45:22.037Z,81.00
2022-10-31T03:48:05.001Z,80.90
2022-10-31T03:50:59.218Z,68.00
2022-10-31T03:54:12.425Z,72.70
2022-10-31T03:57:01.550Z,74.40
2022-10-31T04:00:05.900Z,70.50
2022-10-31T04:03:06.154Z,69.30
2022-10-31T04:05:53.511Z,71.20
2022-10-31T04:08:41.605Z,72.50
2022-10-31T04:11:31.512Z,62.90
2022-10-31T04:14:48.977Z,65.00
2022-10-31T04:17:36.000Z,71.10
2022-10-31T04:20:19.687Z,70.40
2022-10-31T04:23:03.135Z,67.70
2022-10-31T04:25:47.334Z,66.50
2022-10-31T04:28:30.121Z,70.60
2022-10-31T04:31:13.911Z,71.90
2022-10-31T04:33:56.896Z,73.50
2022-10-31T04:36:39.986Z,82.10
2022-10-31T04:39:26.782Z,79.10
2022-10-31T04:42:41.835Z,76.40
2022-10-31T04:45:25.692Z,80.50
2022-10-31T04:48:08.823Z,78.50
2022-10-31T04:50:51.890Z,78.00
2022-10-31T04:53:35.010Z,80.50
2022-10-31T04:56:37.997Z,63.60
2022-10-31T04:59:26.575Z,73.00
2022-10-31T05:02:10.400Z,67.90
2022-10-31T05:05:01.211Z,67.10
2022-10-31T05:07:46.620Z,63.10
2022-10-31T05:10:30.879Z,62.40
2022-10-31T05:13:16.668Z,62.50
2022-10-31T05:16:31.346Z,56.00
2022-10-31T05:19:34.113Z,61.10
2022-10-31T05:22:47.939Z,51.90
2022-10-31T05:25:30.901Z,53.60
2022-10-31T05:28:13.659Z,54.80
2022-10-31T05:33:39.424Z,55.60
2022-10-31T05:36:22.211Z,48.40
2022-10-31T05:39:15.684Z,59.70
2022-10-31T05:42:01.947Z,50.80
2022-10-31T05:47:56.114Z,54.20
2022-10-31T05:50:57.461Z,51.90
2022-10-31T05:53:41.473Z,55.50
2022-10-31T05:59:06.816Z,57.40
2022-10-31T06:01:49.857Z,49.20
2022-10-31T06:05:03.394Z,53.30
2022-10-31T06:07:47.443Z,53.40
2022-10-31T06:10:30.404Z,52.20
2022-10-31T06:13:13.428Z,51.50
2022-10-31T06:16:19.056Z,50.30
2022-10-31T06:19:02.208Z,50.00
2022-10-31T06:24:28.165Z,87.20
2022-10-31T06:27:16.956Z,91.90
2022-10-31T06:29:59.991Z,94.90
2022-10-31T06:32:51.829Z,86.80
2022-10-31T06:35:36.095Z,84.90
2022-10-31T06:41:07.189Z,67.10
2022-10-31T06:44:04.886Z,76.90
2022-10-31T06:47:09.763Z,86.10
2022-10-31T06:50:23.268Z,91.20
2022-10-31T06:53:06.586Z,101.20
2022-10-31T06:55:50.224Z,83.20
2022-10-31T06:58:34.163Z,77.00
2022-10-31T07:01:18.196Z,81.80
2022-10-31T07:04:01.936Z,80.50
2022-10-31T07:06:51.784Z,84.30
2022-10-31T07:09:36.159Z,73.80
2022-10-31T07:12:20.041Z,70.10
2022-10-31T07:15:12.835Z,68.10
2022-10-31T07:18:01.585Z,68.00
2022-10-31T07:20:44.448Z,66.20
2022-10-31T07:23:27.706Z,69.40
2022-10-31T07:26:29.158Z,67.60
2022-10-31T07:29:11.973Z,64.00
2022-10-31T07:31:54.839Z,65.60
2022-10-31T07:34:46.576Z,63.30
2022-10-31T07:37:54.077Z,60.60
2022-10-31T07:40:37.400Z,62.20
2022-10-31T07:43:20.975Z,65.00
2022-10-31T07:46:20.841Z,62.70
2022-10-31T07:49:22.391Z,55.40
2022-10-31T07:52:24.218Z,58.00
2022-10-31T07:55:25.902Z,67.90
2022-10-31T07:58:18.209Z,61.20
2022-10-31T08:01:01.353Z,58.20
2022-10-31T08:03:50.265Z,61.40
2022-10-31T08:06:59.374Z,65.10
2022-10-31T08:09:46.286Z,63.50
2022-10-31T08:12:37.161Z,63.70
2022-10-31T08:15:20.665Z,63.00
2022-10-31T08:18:04.164Z,58.90
2022-10-31T08:20:48.172Z,60.60
2022-10-31T08:23:31.063Z,61.20
2022-10-31T08:26:14.412Z,63.10
2022-10-31T08:28:57.394Z,53.80
2022-10-31T08:31:43.180Z,64.40
2022-10-31T08:34:44.650Z,67.40
2022-10-31T08:37:46.421Z,58.00
2022-10-31T08:40:32.766Z,70.80
2022-10-31T08:43:20.126Z,53.00
2022-10-31T08:46:04.474Z,52.50
2022-10-31T08:48:51.863Z,46.90
2022-10-31T08:51:35.517Z,42.20
2022-10-31T08:54:18.370Z,47.20
2022-10-31T08:57:12.933Z,50.90
2022-10-31T08:59:57.978Z,47.80
2022-10-31T09:02:43.247Z,48.70
2022-10-31T09:05:26.858Z,63.20
2022-10-31T09:08:15.755Z,69.20
2022-10-31T09:11:00.042Z,61.00
2022-10-31T09:14:01.797Z,58.50
2022-10-31T09:17:03.747Z,65.10
2022-10-31T09:20:02.110Z,63.00
2022-10-31T09:22:47.792Z,64.20
2022-10-31T09:25:31.262Z,74.90
2022-10-31T09:28:40.438Z,66.30
2022-10-31T09:31:28.977Z,75.50
2022-10-31T09:34:21.642Z,60.10
2022-10-31T09:37:26.122Z,69.10
2022-10-31T09:40:09.778Z,63.20
2022-10-31T09:43:22.553Z,66.60
2022-10-31T09:46:46.401Z,61.70
2022-10-31T09:49:51.661Z,66.10
2022-10-31T09:52:37.955Z,63.80
2022-10-31T09:55:32.479Z,65.00
2022-10-31T09:58:28.198Z,63.90
2022-10-31T10:01:43.899Z,63.70
2022-10-31T10:04:56.121Z,61.70
2022-10-31T10:08:01.106Z,58.50
2022-10-31T10:11:13.966Z,66.00
2022-10-31T10:14:30.092Z,64.90
2022-10-31T10:17:34.186Z,67.70
2022-10-31T10:20:25.746Z,63.50
2022-10-31T10:23:30.690Z,65.00
2022-10-31T10:26:17.860Z,67.50
2022-10-31T10:29:11.277Z,66.80
2022-10-31T10:31:56.302Z,62.60
2022-10-31T10:34:47.926Z,63.50
2022-10-31T10:37:37.010Z,67.60
2022-10-31T10:40:26.734Z,61.20
2022-10-31T10:43:41.835Z,65.20
2022-10-31T10:46:47.662Z,64.00
2022-10-31T10:49:42.794Z,65.30
2022-10-31T10:52:41.764Z,62.50
2022-10-31T10:55:54.701Z,62.00
2022-10-31T10:58:40.609Z,60.00
2022-10-31T11:01:23.623Z,54.60
2022-10-31T11:04:34.789Z,57.30
2022-10-31T11:07:17.538Z,57.90
2022-10-31T11:10:06.160Z,47.00
2022-10-31T11:13:04.597Z,45.00
2022-10-31T11:15:57.949Z,45.50
2022-10-31T11:18:44.259Z,51.00
2022-10-31T11:21:30.101Z,43.70
2022-10-31T11:24:20.415Z,40.90
2022-10-31T11:27:23.258Z,42.60
2022-10-31T11:30:07.841Z,40.40
2022-10-31T11:32:53.694Z,43.90
2022-10-31T11:35:41.080Z,43.70
2022-10-31T11:38:27.823Z,44.80
2022-10-31T11:41:13.586Z,39.70
2022-10-31T11:44:05.399Z,43.30
2022-10-31T11:46:58.999Z,42.20
2022-10-31T11:49:51.170Z,35.70
2022-10-31T11:52:34.050Z,38.00
2022-10-31T11:55:32.100Z,35.70
2022-10-31T11:58:23.787Z,37.70
2022-10-31T12:01:06.794Z,30.90
2022-10-31T12:04:13.665Z,36.60
2022-10-31T12:06:56.371Z,34.30
2022-10-31T12:09:39.938Z,32.50
2022-10-31T12:12:25.391Z,33.50
2022-10-31T12:15:31.939Z,36.10
2022-10-31T12:18:33.098Z,33.10
2022-10-31T12:21:45.908Z,34.40
2022-10-31T12:27:59.224Z,32.80
2022-10-31T12:31:03.269Z,28.70
2022-10-31T12:33:57.544Z,33.50
2022-10-31T12:36:52.457Z,36.50
2022-10-31T12:39:44.156Z,32.40
2022-10-31T12:42:51.116Z,35.00
2022-10-31T12:45:56.493Z,33.20
2022-10-31T12:48:58.502Z,34.50
2022-10-31T12:51:52.446Z,32.80
2022-10-31T12:55:01.465Z,32.20
2022-10-31T12:57:48.387Z,34.80
2022-10-31T13:00:37.311Z,43.30
2022-10-31T13:03:30.575Z,33.80
2022-10-31T13:06:20.842Z,32.70
2022-10-31T13:09:09.610Z,30.80
2022-10-31T13:12:02.173Z,35.20
2022-10-31T13:15:04.195Z,30.70
2022-10-31T13:17:51.658Z,30.00
2022-10-31T13:20:40.159Z,32.30
2022-10-31T13:26:44.135Z,34.00
2022-10-31T13:29:39.904Z,32.70
2022-10-31T13:32:22.792Z,29.80
2022-10-31T13:35:11.946Z,35.70
2022-10-31T13:38:05.389Z,32.80
2022-10-31T13:40:54.345Z,30.60
2022-10-31T13:43:56.090Z,34.60
2022-10-31T13:49:29.390Z,28.90
2022-10-31T13:52:12.342Z,33.80
2022-10-31T13:54:58.302Z,37.10
2022-10-31T13:57:45.624Z,32.80
2022-10-31T14:00:28.877Z,33.80
2022-10-31T14:03:36.326Z,36.80
2022-10-31T14:06:35.386Z,28.30
2022-10-31T14:09:32.005Z,31.50
2022-10-31T14:12:36.997Z,29.40
2022-10-31T14:15:26.321Z,36.50
2022-10-31T14:18:24.821Z,33.10
2022-10-31T14:21:27.639Z,29.70
2022-10-31T14:24:16.788Z,31.20
2022-10-31T14:27:22.367Z,28.20
2022-10-31T14:30:15.657Z,30.50
2022-10-31T14:33:19.365Z,36.00
2022-10-31T14:36:11.383Z,28.30
2022-10-31T14:39:08.523Z,30.60
2022-10-31T14:42:04.345Z,26.90
2022-10-31T14:45:12.225Z,27.10
2022-10-31T14:48:32.283Z,29.30
2022-10-31T14:51:20.565Z,27.30
2022-10-31T14:54:06.209Z,31.70
2022-10-31T14:56:55.379Z,23.10
2022-10-31T14:59:41.474Z,28.50
2022-10-31T15:02:29.297Z,26.00
2022-10-31T15:05:14.057Z,23.20
2022-10-31T15:07:59.294Z,24.60
2022-10-31T15:10:46.976Z,28.80
2022-10-31T15:13:29.806Z,32.40
2022-10-31T15:16:15.465Z,26.40
2022-10-31T15:19:01.828Z,19.00
2022-10-31T15:21:47.106Z,24.90
2022-10-31T15:24:36.551Z,27.30
2022-10-31T15:27:19.755Z,21.80
2022-10-31T15:30:02.570Z,25.00
2022-10-31T15:32:57.245Z,28.00
2022-10-31T15:35:41.016Z,30.60
2022-10-31T15:38:24.933Z,25.40
2022-10-31T15:41:21.044Z,19.00
2022-10-31T15:44:13.921Z,19.80
2022-10-31T15:47:02.428Z,22.30
2022-10-31T15:49:55.292Z,26.60
2022-10-31T15:52:43.872Z,23.20
2022-10-31T15:55:36.759Z,23.10
2022-10-31T15:58:20.414Z,32.00
2022-10-31T16:01:03.305Z,23.30
2022-10-31T16:04:21.658Z,41.80
2022-10-31T16:07:20.182Z,44.50
2022-10-31T16:10:06.966Z,42.30
2022-10-31T16:12:49.768Z,41.70
2022-10-31T16:15:34.462Z,69.10
2022-10-31T16:18:17.386Z,82.10
2022-10-31T16:21:00.193Z,103.50
2022-10-31T16:23:56.524Z,119.20
2022-10-31T16:26:40.976Z,95.60
2022-10-31T16:29:44.790Z,78.90
2022-10-31T16:32:53.806Z,75.50
2022-10-31T16:35:39.771Z,75.50
2022-10-31T16:38:23.073Z,73.00
2022-10-31T16:41:05.793Z,73.90
2022-10-31T16:43:52.302Z,64.50
2022-10-31T16:46:35.506Z,61.00
2022-10-31T16:49:19.734Z,55.50
2022-10-31T16:52:02.413Z,54.20
2022-10-31T16:54:45.145Z,54.10
2022-10-31T16:57:30.767Z,45.80
2022-10-31T17:00:19.904Z,40.60
2022-10-31T17:03:02.725Z,37.10
2022-10-31T17:05:45.743Z,39.50
2022-10-31T17:08:28.628Z,47.20
2022-10-31T17:11:23.743Z,50.60
2022-10-31T17:14:06.655Z,38.00
2022-10-31T17:16:50.698Z,34.20
2022-10-31T17:19:35.145Z,50.00
2022-10-31T17:22:19.216Z,51.10
2022-10-31T17:25:01.925Z,56.20
2022-10-31T17:27:47.353Z,49.30
2022-10-31T17:30:31.654Z,55.20
2022-10-31T17:33:16.587Z,55.90
2022-10-31T17:35:59.392Z,56.70
2022-10-31T17:38:42.317Z,61.30
2022-10-31T17:41:25.224Z,71.90
2022-10-31T17:44:11.655Z,67.70
2022-10-31T17:46:54.334Z,66.40
2022-10-31T17:49:37.478Z,55.40
2022-10-31T17:52:20.778Z,65.20
2022-10-31T17:55:03.822Z,55.70
2022-10-31T17:57:46.709Z,74.50
2022-10-31T18:00:29.516Z,56.60
2022-10-31T18:03:12.302Z,64.20
2022-10-31T18:05:57.625Z,51.90
2022-10-31T18:08:41.377Z,52.40
2022-10-31T18:11:24.144Z,82.30
2022-10-31T18:14:06.956Z,72.30
2022-10-31T18:16:51.232Z,72.10
2022-10-31T18:19:34.529Z,70.40
2022-10-31T18:22:17.256Z,69.90
2022-10-31T18:25:02.161Z,88.40
2022-10-31T18:27:45.797Z,82.60
2022-10-31T18:30:28.542Z,79.80
2022-10-31T18:33:11.851Z,85.40
2022-10-31T18:35:54.712Z,68.30
2022-10-31T18:38:41.859Z,80.50
2022-10-31T18:41:25.048Z,86.80
2022-10-31T18:44:08.850Z,74.90
2022-10-31T18:46:51.963Z,99.60
2022-10-31T18:49:34.746Z,79.80
2022-10-31T18:52:17.447Z,80.50
2022-10-31T18:55:00.168Z,95.00
2022-10-31T18:57:42.907Z,86.40
2022-10-31T19:00:25.938Z,88.40
2022-10-31T19:03:08.996Z,73.30
2022-10-31T19:05:56.397Z,98.40
2022-10-31T19:08:39.785Z,102.20
2022-10-31T19:11:23.151Z,118.40
2022-10-31T19:14:08.482Z,80.40
2022-10-31T19:16:52.514Z,72.50
2022-10-31T19:19:35.808Z,62.40
2022-10-31T19:22:18.632Z,90.30
2022-10-31T19:25:05.030Z,79.10
2022-10-31T19:27:52.117Z,79.30
2022-10-31T19:30:34.796Z,78.60
2022-10-31T19:33:17.482Z,72.60
2022-10-31T19:36:01.804Z,87.20
2022-10-31T19:38:47.008Z,89.50
2022-10-31T19:41:30.251Z,93.40
2022-10-31T19:44:15.896Z,72.00
2022-10-31T19:46:59.035Z,82.60
2022-10-31T19:49:41.838Z,77.60
2022-10-31T19:52:24.748Z,88.60
2022-10-31T19:55:08.104Z,68.80
2022-10-31T19:58:02.013Z,66.30
2022-10-31T20:00:45.276Z,75.00
2022-10-31T20:03:28.173Z,79.50
2022-10-31T20:06:38.932Z,77.10
2022-10-31T20:09:22.629Z,86.50
2022-10-31T20:12:05.803Z,89.90
2022-10-31T20:14:49.405Z,75.40
2022-10-31T20:17:32.127Z,69.80
2022-10-31T20:20:14.945Z,78.70
2022-10-31T20:22:59.301Z,84.60
2022-10-31T20:25:49.495Z,84.10
2022-10-31T20:28:35.851Z,80.90
2022-10-31T20:31:23.090Z,67.30
2022-10-31T20:34:05.979Z,57.10
2022-10-31T20:36:48.792Z,61.00
2022-10-31T20:39:32.348Z,89.10
2022-10-31T20:42:15.083Z,66.20
2022-10-31T20:44:57.845Z,76.20
2022-10-31T20:47:40.608Z,77.10
2022-10-31T20:50:24.476Z,62.90
2022-10-31T20:53:07.243Z,71.90
2022-10-31T20:55:50.220Z,66.50
2022-10-31T20:58:38.251Z,60.00
2022-10-31T21:01:24.302Z,63.90
2022-10-31T21:04:10.019Z,84.00
2022-10-31T21:06:52.890Z,63.30
2022-10-31T21:09:35.688Z,69.50
2022-10-31T21:12:18.456Z,59.40
2022-10-31T21:15:01.239Z,59.70
2022-10-31T21:17:44.105Z,59.70
2022-10-31T21:20:26.795Z,66.60
2022-10-31T21:23:11.140Z,66.50
2022-10-31T21:25:54.052Z,60.80
2022-10-31T21:28:37.896Z,67.90
2022-10-31T21:31:20.594Z,54.00
2022-10-31T21:34:03.831Z,56.00
2022-10-31T21:36:46.533Z,58.20
2022-10-31T21:39:29.322Z,69.50
2022-10-31T21:42:12.528Z,58.90
2022-10-31T21:44:57.056Z,58.40
2022-10-31T21:47:39.886Z,64.20
2022-10-31T21:50:22.778Z,61.20
2022-10-31T21:53:25.613Z,74.40
2022-10-31T21:56:08.476Z,62.90
2022-10-31T21:58:52.354Z,55.00
2022-10-31T22:01:35.993Z,66.70
2022-10-31T22:04:19.787Z,65.70
2022-10-31T22:07:02.464Z,67.00
2022-10-31T22:09:47.612Z,63.50
2022-10-31T22:12:30.277Z,62.70
2022-10-31T22:15:13.053Z,55.50
2022-10-31T22:17:55.732Z,72.00
2022-10-31T22:20:39.158Z,69.20
2022-10-31T22:23:21.876Z,62.70
2022-10-31T22:26:07.347Z,64.60
2022-10-31T22:28:56.022Z,64.20
2022-10-31T22:31:41.261Z,70.60
2022-10-31T22:34:24.177Z,70.80
2022-10-31T22:37:06.882Z,73.80
2022-10-31T22:39:49.610Z,68.00
2022-10-31T22:42:33.535Z,81.30
2022-10-31T22:45:16.429Z,84.70
2022-10-31T22:47:59.400Z,85.30
2022-10-31T22:50:42.487Z,92.10
2022-10-31T22:53:25.401Z,79.10
2022-10-31T22:56:10.873Z,74.80
2022-10-31T22:58:54.097Z,89.70
2022-10-31T23:01:37.436Z,77.70
2022-10-31T23:04:20.371Z,81.80
2022-10-31T23:07:03.505Z,71.80
2022-10-31T23:09:46.267Z,75.90
2022-10-31T23:12:48.625Z,78.70
2022-10-31T23:15:31.411Z,85.60
2022-10-31T23:18:19.042Z,70.90
2022-10-31T23:21:37.286Z,72.60
2022-10-31T23:24:37.856Z,70.70
2022-10-31T23:27:24.359Z,75.30
2022-10-31T23:30:07.651Z,60.10
2022-10-31T23:32:50.377Z,70.00
2022-10-31T23:35:33.101Z,76.70
2022-10-31T23:38:18.103Z,88.50
2022-10-31T23:41:00.918Z,74.20
2022-10-31T23:43:43.729Z,70.60
2022-10-31T23:46:26.386Z,70.70
2022-10-31T23:49:09.082Z,80.70
2022-10-31T23:51:52.498Z,73.00
2022-10-31T23:54:35.800Z,78.70
2022-10-31T23:57:18.512Z,85.60
